createdAt,value
2022-12-03T00:01:59.085Z,1.28
2022-12-03T00:04:25.699Z,1.27
2022-12-03T00:06:52.297Z,1.19
2022-12-03T00:09:18.854Z,1.27
2022-12-03T00:11:45.521Z,1.18
2022-12-03T00:14:12.124Z,1.27
2022-12-03T00:16:38.709Z,1.23
2022-12-03T00:19:07.653Z,1.26
2022-12-03T00:21:34.707Z,1.19
2022-12-03T00:24:01.369Z,1.23
2022-12-03T00:26:28.007Z,1.33
2022-12-03T00:28:54.952Z,1.25
2022-12-03T00:31:23.470Z,1.24
2022-12-03T00:33:51.292Z,1.21
2022-12-03T00:36:18.917Z,1.23
2022-12-03T00:38:45.798Z,1.31
2022-12-03T00:41:13.095Z,1.34
2022-12-03T00:43:39.696Z,1.24
2022-12-03T00:46:06.348Z,1.19
2022-12-03T00:48:33.043Z,1.26
2022-12-03T00:50:59.669Z,1.31
2022-12-03T00:53:27.171Z,1.27
2022-12-03T00:55:53.739Z,1.26
2022-12-03T00:58:20.291Z,1.28
2022-12-03T01:00:46.987Z,1.40
2022-12-03T01:03:13.695Z,1.46
2022-12-03T01:05:40.383Z,1.48
2022-12-03T01:08:07.034Z,1.25
2022-12-03T01:10:33.665Z,1.32
2022-12-03T01:13:00.234Z,1.30
2022-12-03T01:15:26.871Z,1.28
2022-12-03T01:17:54.384Z,1.19
2022-12-03T01:20:21.326Z,1.28
2022-12-03T01:22:47.858Z,1.39
2022-12-03T01:25:14.512Z,1.40
2022-12-03T01:27:41.209Z,1.51
2022-12-03T01:30:08.792Z,1.33
2022-12-03T01:32:35.435Z,1.43
2022-12-03T01:35:02.029Z,1.33
2022-12-03T01:37:28.950Z,1.26
2022-12-03T01:39:55.676Z,1.31
2022-12-03T01:42:29.557Z,1.36
2022-12-03T01:45:00.684Z,1.34
2022-12-03T01:47:31.279Z,1.37
2022-12-03T01:50:06.904Z,1.41
2022-12-03T01:52:38.005Z,1.41
2022-12-03T01:55:11.633Z,1.34
2022-12-03T01:57:47.517Z,1.49
2022-12-03T02:00:19.964Z,1.49
2022-12-03T02:02:49.892Z,1.43
2022-12-03T02:05:19.573Z,1.51
2022-12-03T02:07:46.489Z,1.35
2022-12-03T02:10:15.634Z,1.41
2022-12-03T02:13:02.119Z,1.50
2022-12-03T02:15:28.921Z,1.59
2022-12-03T02:17:55.865Z,1.56
2022-12-03T02:20:22.969Z,1.53
2022-12-03T02:23:10.195Z,1.49
2022-12-03T02:25:37.029Z,1.46
2022-12-03T02:28:05.778Z,1.32
2022-12-03T02:30:32.667Z,1.43
2022-12-03T02:32:59.716Z,1.45
2022-12-03T02:35:30.271Z,1.45
2022-12-03T02:38:02.321Z,1.43
2022-12-03T02:40:32.463Z,1.42
2022-12-03T02:43:01.289Z,1.43
2022-12-03T02:45:34.967Z,1.35
2022-12-03T02:48:07.799Z,1.41
2022-12-03T02:50:37.768Z,1.40
2022-12-03T02:53:07.780Z,1.56
2022-12-03T02:55:37.332Z,1.41
2022-12-03T02:58:05.761Z,1.42
2022-12-03T03:00:34.322Z,1.39
2022-12-03T03:03:04.385Z,1.50
2022-12-03T03:05:31.862Z,1.42
2022-12-03T03:08:00.112Z,1.45
2022-12-03T03:10:28.546Z,1.40
2022-12-03T03:12:55.955Z,1.52
2022-12-03T03:15:23.600Z,1.52
2022-12-03T03:17:50.508Z,1.45
2022-12-03T03:20:17.616Z,1.49
2022-12-03T03:22:44.214Z,1.58
2022-12-03T03:25:15.457Z,1.46
2022-12-03T03:27:42.477Z,1.54
2022-12-03T03:30:11.061Z,1.41
2022-12-03T03:32:39.594Z,1.41
2022-12-03T03:35:10.842Z,1.52
2022-12-03T03:37:38.252Z,1.42
2022-12-03T03:40:05.560Z,1.39
2022-12-03T03:42:32.174Z,1.49
2022-12-03T03:44:59.025Z,1.48
2022-12-03T03:47:25.763Z,1.39
2022-12-03T03:49:53.064Z,1.38
2022-12-03T03:52:20.642Z,1.37
2022-12-03T03:54:47.592Z,1.35
2022-12-03T03:57:14.436Z,1.38
2022-12-03T03:59:41.423Z,1.35
2022-12-03T04:02:19.109Z,1.27
2022-12-03T04:04:46.003Z,1.35
2022-12-03T04:07:12.666Z,1.36
2022-12-03T04:09:39.197Z,1.36
2022-12-03T04:12:24.587Z,1.33
2022-12-03T04:14:51.516Z,1.30
2022-12-03T04:17:18.374Z,1.37
2022-12-03T04:19:45.065Z,1.25
2022-12-03T04:22:30.086Z,1.15
2022-12-03T04:25:16.586Z,1.21
2022-12-03T04:28:02.115Z,1.14
2022-12-03T04:30:28.868Z,1.15
2022-12-03T04:33:13.890Z,1.16
2022-12-03T04:35:43.577Z,1.11
2022-12-03T04:38:18.928Z,1.15
2022-12-03T04:41:04.229Z,1.15
2022-12-03T04:43:33.010Z,1.18
2022-12-03T04:46:00.491Z,1.10
2022-12-03T04:48:27.432Z,1.20
2022-12-03T04:50:54.011Z,1.24
2022-12-03T04:53:20.612Z,1.20
2022-12-03T04:55:47.186Z,1.01
2022-12-03T04:58:13.798Z,0.98
2022-12-03T05:00:40.439Z,0.97
2022-12-03T05:03:07.096Z,0.97
2022-12-03T05:05:33.726Z,1.14
2022-12-03T05:08:00.437Z,1.09
2022-12-03T05:10:27.084Z,1.07
2022-12-03T05:12:53.640Z,1.06
2022-12-03T05:15:20.216Z,1.04
2022-12-03T05:17:46.773Z,1.11
2022-12-03T05:20:32.290Z,1.11
2022-12-03T05:22:58.883Z,1.10
2022-12-03T05:25:25.470Z,1.02
2022-12-03T05:27:52.068Z,1.10
2022-12-03T05:30:18.712Z,1.16
2022-12-03T05:32:45.251Z,1.19
2022-12-03T05:35:11.930Z,1.27
2022-12-03T05:37:38.500Z,1.20
2022-12-03T05:40:05.816Z,1.27
2022-12-03T05:42:51.120Z,1.18
2022-12-03T05:45:18.639Z,1.27
2022-12-03T05:47:45.441Z,1.35
2022-12-03T05:50:12.231Z,1.41
2022-12-03T05:52:38.832Z,1.32
2022-12-03T05:55:09.109Z,1.38
2022-12-03T05:57:35.734Z,1.43
2022-12-03T06:00:02.395Z,1.47
2022-12-03T06:02:29.099Z,1.50
2022-12-03T06:04:55.994Z,1.41
2022-12-03T06:07:22.810Z,1.45
2022-12-03T06:09:49.375Z,1.55
2022-12-03T06:12:15.946Z,1.41
2022-12-03T06:14:42.587Z,1.44
2022-12-03T06:17:09.213Z,1.50
2022-12-03T06:19:35.966Z,1.52
2022-12-03T06:22:02.593Z,1.52
2022-12-03T06:24:29.139Z,1.64
2022-12-03T06:26:55.782Z,1.74
2022-12-03T06:29:22.527Z,1.72
2022-12-03T06:31:49.134Z,1.80
2022-12-03T06:34:15.790Z,1.81
2022-12-03T06:36:42.359Z,1.66
2022-12-03T06:39:08.978Z,1.73
2022-12-03T06:41:35.598Z,1.67
2022-12-03T06:44:02.229Z,1.78
2022-12-03T06:46:28.945Z,1.78
2022-12-03T06:48:55.629Z,1.81
2022-12-03T06:51:22.201Z,1.81
2022-12-03T06:53:48.803Z,1.92
2022-12-03T06:56:17.854Z,2.01
2022-12-03T06:58:48.026Z,2.00
2022-12-03T07:01:14.650Z,2.15
2022-12-03T07:03:41.219Z,2.11
2022-12-03T07:06:07.970Z,2.22
2022-12-03T07:08:34.651Z,2.31
2022-12-03T07:11:01.293Z,2.36
2022-12-03T07:13:27.830Z,2.39
2022-12-03T07:15:54.508Z,2.48
2022-12-03T07:18:21.145Z,2.61
2022-12-03T07:20:47.828Z,2.58
2022-12-03T07:23:14.482Z,2.44
2022-12-03T07:25:41.025Z,2.43
2022-12-03T07:28:07.576Z,2.61
2022-12-03T07:30:34.162Z,2.56
2022-12-03T07:33:00.723Z,2.54
2022-12-03T07:35:27.300Z,2.65
2022-12-03T07:37:53.856Z,2.67
2022-12-03T07:40:20.401Z,2.49
2022-12-03T07:42:47.033Z,2.73
2022-12-03T07:45:13.605Z,2.81
2022-12-03T07:47:40.175Z,2.73
2022-12-03T07:50:07.401Z,2.68
2022-12-03T07:52:33.958Z,2.96
2022-12-03T07:55:00.517Z,2.82
2022-12-03T07:57:27.086Z,2.82
2022-12-03T07:59:53.666Z,2.43
2022-12-03T08:02:21.896Z,2.76
2022-12-03T08:04:48.741Z,2.88
2022-12-03T08:07:20.035Z,2.90
2022-12-03T08:09:46.717Z,2.67
2022-12-03T08:12:17.639Z,2.59
2022-12-03T08:14:47.044Z,2.53
2022-12-03T08:17:15.097Z,2.67
2022-12-03T08:19:46.612Z,2.99
2022-12-03T08:22:15.036Z,2.85
2022-12-03T08:24:43.008Z,3.01
2022-12-03T08:27:19.107Z,2.83
2022-12-03T08:29:46.559Z,3.38
2022-12-03T08:32:13.852Z,3.48
2022-12-03T08:34:43.547Z,3.45
2022-12-03T08:37:29.859Z,3.93
2022-12-03T08:39:56.643Z,4.19
2022-12-03T08:42:43.602Z,4.35
2022-12-03T08:45:39.948Z,3.80
2022-12-03T08:48:36.996Z,3.61
2022-12-03T08:51:15.399Z,3.69
2022-12-03T08:53:46.506Z,3.17
2022-12-03T08:56:26.756Z,3.54
2022-12-03T08:59:07.967Z,3.70
2022-12-03T09:01:46.249Z,3.70
2022-12-03T09:04:24.624Z,3.70
2022-12-03T09:06:52.699Z,3.98
2022-12-03T09:09:22.722Z,4.35
2022-12-03T09:11:50.099Z,4.33
2022-12-03T09:14:21.302Z,4.77
2022-12-03T09:16:50.251Z,4.95
2022-12-03T09:19:19.279Z,5.08
2022-12-03T09:21:45.883Z,5.44
2022-12-03T09:24:12.886Z,5.96
2022-12-03T09:26:39.468Z,6.79
2022-12-03T09:29:10.561Z,6.16
2022-12-03T09:31:38.918Z,6.34
2022-12-03T09:34:05.787Z,6.23
2022-12-03T09:36:32.580Z,6.31
2022-12-03T09:38:59.145Z,6.70
2022-12-03T09:41:31.786Z,6.59
2022-12-03T09:44:06.503Z,7.00
2022-12-03T09:46:36.379Z,8.47
2022-12-03T09:49:05.132Z,7.96
2022-12-03T09:51:34.627Z,8.69
2022-12-03T09:54:06.149Z,7.27
2022-12-03T09:56:36.456Z,8.49
2022-12-03T09:59:12.334Z,8.72
2022-12-03T10:01:38.969Z,10.44
2022-12-03T10:04:06.037Z,9.48
2022-12-03T10:06:32.891Z,8.59
2022-12-03T10:09:00.131Z,9.77
2022-12-03T10:11:27.433Z,10.49
2022-12-03T10:13:56.404Z,9.21
2022-12-03T10:16:26.071Z,8.89
2022-12-03T10:18:55.999Z,9.81
2022-12-03T10:21:32.134Z,9.24
2022-12-03T10:24:17.114Z,9.77
2022-12-03T10:26:45.239Z,9.82
2022-12-03T10:29:21.104Z,9.87
2022-12-03T10:32:02.680Z,9.23
2022-12-03T10:34:35.260Z,8.82
2022-12-03T10:37:16.764Z,8.30
2022-12-03T10:39:55.773Z,8.77
2022-12-03T10:42:23.919Z,8.95
2022-12-03T10:45:07.627Z,8.57
2022-12-03T10:47:34.434Z,8.83
2022-12-03T10:50:06.968Z,8.96
2022-12-03T10:52:33.695Z,9.53
2022-12-03T10:55:00.302Z,8.58
2022-12-03T10:57:29.401Z,9.04
2022-12-03T11:00:03.769Z,9.05
2022-12-03T11:02:30.390Z,8.95
2022-12-03T11:04:57.145Z,8.36
2022-12-03T11:07:25.120Z,8.86
2022-12-03T11:09:58.819Z,8.40
2022-12-03T11:12:29.058Z,8.31
2022-12-03T11:14:56.648Z,8.06
2022-12-03T11:17:46.642Z,8.63
2022-12-03T11:20:44.972Z,9.81
2022-12-03T11:23:13.999Z,9.72
2022-12-03T11:25:50.500Z,9.60
2022-12-03T11:28:17.126Z,8.76
2022-12-03T11:30:56.812Z,8.52
2022-12-03T11:33:31.872Z,8.54
2022-12-03T11:36:04.740Z,8.38
2022-12-03T11:38:41.022Z,8.59
2022-12-03T11:41:18.420Z,8.44
2022-12-03T11:43:56.024Z,8.22
2022-12-03T11:46:29.452Z,7.88
2022-12-03T11:48:59.257Z,7.70
2022-12-03T11:51:28.438Z,7.92
2022-12-03T11:53:57.812Z,7.85
2022-12-03T11:56:27.652Z,7.59
2022-12-03T11:59:03.490Z,8.20
2022-12-03T12:01:38.578Z,8.19
2022-12-03T12:04:07.391Z,8.14
2022-12-03T12:06:42.585Z,8.09
2022-12-03T12:09:09.693Z,8.11
2022-12-03T12:11:39.896Z,8.57
2022-12-03T12:14:13.086Z,7.54
2022-12-03T12:16:53.736Z,7.80
2022-12-03T12:19:40.656Z,8.04
2022-12-03T12:22:14.129Z,7.17
2022-12-03T12:24:41.305Z,6.73
2022-12-03T12:27:16.855Z,6.99
2022-12-03T12:29:48.846Z,7.08
2022-12-03T12:32:18.098Z,6.91
2022-12-03T12:34:50.029Z,6.88
2022-12-03T12:38:11.327Z,6.68
2022-12-03T12:40:40.518Z,6.51
2022-12-03T12:43:27.502Z,6.36
2022-12-03T12:45:56.434Z,6.36
2022-12-03T12:48:22.988Z,6.54
2022-12-03T12:51:11.430Z,6.42
2022-12-03T12:53:39.918Z,6.16
2022-12-03T12:56:25.438Z,6.29
2022-12-03T12:58:52.383Z,6.51
2022-12-03T13:01:26.171Z,6.50
2022-12-03T13:03:53.266Z,6.18
2022-12-03T13:06:26.161Z,6.14
2022-12-03T13:08:53.085Z,6.07
2022-12-03T13:11:42.038Z,6.11
2022-12-03T13:14:21.049Z,6.05
2022-12-03T13:16:49.840Z,6.05
2022-12-03T13:19:39.559Z,5.94
2022-12-03T13:22:15.623Z,5.94
2022-12-03T13:24:52.861Z,6.09
2022-12-03T13:27:37.303Z,5.91
2022-12-03T13:30:18.424Z,6.01
2022-12-03T13:32:45.053Z,5.89
2022-12-03T13:35:35.912Z,5.89
2022-12-03T13:38:10.536Z,5.98
2022-12-03T13:40:37.685Z,5.96
2022-12-03T13:43:10.938Z,5.83
2022-12-03T13:45:39.024Z,5.97
2022-12-03T13:48:29.520Z,5.88
2022-12-03T13:50:56.431Z,5.90
2022-12-03T13:53:26.774Z,5.85
2022-12-03T13:56:21.072Z,5.87
2022-12-03T13:58:47.652Z,5.76
2022-12-03T14:01:14.387Z,5.75
2022-12-03T14:03:41.095Z,5.81
2022-12-03T14:06:07.786Z,5.62
2022-12-03T14:08:34.355Z,5.54
2022-12-03T14:11:01.171Z,5.32
2022-12-03T14:13:27.860Z,5.27
2022-12-03T14:15:54.483Z,5.17
2022-12-03T14:18:21.100Z,5.12
2022-12-03T14:20:48.315Z,5.14
2022-12-03T14:23:15.341Z,5.05
2022-12-03T14:25:43.960Z,4.94
2022-12-03T14:28:10.997Z,4.97
2022-12-03T14:30:37.925Z,4.86
2022-12-03T14:33:04.588Z,4.78
2022-12-03T14:35:31.197Z,4.79
2022-12-03T14:37:57.775Z,4.73
2022-12-03T14:40:24.407Z,4.72
2022-12-03T14:42:50.982Z,4.62
2022-12-03T14:45:17.615Z,4.59
2022-12-03T14:47:44.189Z,4.58
2022-12-03T14:50:14.293Z,4.45
2022-12-03T14:52:41.250Z,4.41
2022-12-03T14:55:08.207Z,4.31
2022-12-03T14:57:34.771Z,4.29
2022-12-03T15:00:01.433Z,4.27
2022-12-03T15:02:28.886Z,4.18
2022-12-03T15:04:55.539Z,4.11
2022-12-03T15:07:22.262Z,3.99
2022-12-03T15:09:49.390Z,3.87
2022-12-03T15:12:15.983Z,3.94
2022-12-03T15:14:42.767Z,3.90
2022-12-03T15:17:09.359Z,3.65
2022-12-03T15:19:35.951Z,3.61
2022-12-03T15:22:02.555Z,3.65
2022-12-03T15:24:29.120Z,3.62
2022-12-03T15:26:56.099Z,3.60
2022-12-03T15:29:23.608Z,3.64
2022-12-03T15:31:50.200Z,3.57
2022-12-03T15:34:22.108Z,3.57
2022-12-03T15:36:49.562Z,3.45
2022-12-03T15:39:16.130Z,3.40
2022-12-03T15:41:42.674Z,3.39
2022-12-03T15:44:09.245Z,3.30
2022-12-03T15:46:36.076Z,3.10
2022-12-03T15:49:02.866Z,2.99
2022-12-03T15:51:29.448Z,2.95
2022-12-03T15:53:56.124Z,2.96
2022-12-03T15:56:22.724Z,3.03
2022-12-03T15:58:49.305Z,3.08
2022-12-03T16:01:18.256Z,3.13
2022-12-03T16:03:45.246Z,3.00
2022-12-03T16:06:12.653Z,2.95
2022-12-03T16:08:39.255Z,3.02
2022-12-03T16:11:06.017Z,2.92
2022-12-03T16:13:32.600Z,2.87
2022-12-03T16:15:59.222Z,2.72
2022-12-03T16:18:25.849Z,2.57
2022-12-03T16:20:52.446Z,2.49
2022-12-03T16:23:19.165Z,2.53
2022-12-03T16:25:47.844Z,2.53
2022-12-03T16:28:14.532Z,2.48
2022-12-03T16:30:41.287Z,2.54
2022-12-03T16:33:07.898Z,2.55
2022-12-03T16:35:34.461Z,2.58
2022-12-03T16:38:01.050Z,2.67
2022-12-03T16:40:29.905Z,2.54
2022-12-03T16:42:56.461Z,2.60
2022-12-03T16:45:40.591Z,2.64
2022-12-03T16:48:07.139Z,2.62
2022-12-03T16:50:34.517Z,2.62
2022-12-03T16:53:01.144Z,2.65
2022-12-03T16:55:27.723Z,2.70
2022-12-03T16:57:54.300Z,2.68
2022-12-03T17:00:21.995Z,2.77
2022-12-03T17:02:48.821Z,2.72
2022-12-03T17:05:15.561Z,2.72
2022-12-03T17:07:42.335Z,2.79
2022-12-03T17:10:09.292Z,2.73
2022-12-03T17:13:01.226Z,2.63
2022-12-03T17:15:22.442Z,2.61
2022-12-03T17:17:48.990Z,2.61
2022-12-03T17:20:17.373Z,2.56
2022-12-03T17:22:44.486Z,2.67
2022-12-03T17:25:11.253Z,2.64
2022-12-03T17:27:43.509Z,2.58
2022-12-03T17:30:11.749Z,2.60
2022-12-03T17:32:38.296Z,2.47
2022-12-03T17:35:05.162Z,2.52
2022-12-03T17:37:31.721Z,2.45
2022-12-03T17:39:58.415Z,2.40
2022-12-03T17:42:25.020Z,2.36
2022-12-03T17:44:51.619Z,2.35
2022-12-03T17:47:18.283Z,2.34
2022-12-03T17:49:44.865Z,2.31
2022-12-03T17:52:11.411Z,2.32
2022-12-03T17:55:01.740Z,2.32
2022-12-03T17:57:24.609Z,2.56
2022-12-03T17:59:51.617Z,2.52
2022-12-03T18:02:18.413Z,2.48
2022-12-03T18:04:45.048Z,2.38
2022-12-03T18:07:11.603Z,2.44
2022-12-03T18:09:38.180Z,2.30
2022-12-03T18:12:04.983Z,2.23
2022-12-03T18:14:31.551Z,2.18
2022-12-03T18:16:58.177Z,2.22
2022-12-03T18:19:24.827Z,2.16
2022-12-03T18:21:54.056Z,2.14
2022-12-03T18:24:21.301Z,2.14
2022-12-03T18:26:48.102Z,2.21
2022-12-03T18:29:14.681Z,2.19
2022-12-03T18:31:41.334Z,2.14
2022-12-03T18:34:07.965Z,2.10
2022-12-03T18:36:36.263Z,2.16
2022-12-03T18:39:04.587Z,2.07
2022-12-03T18:41:33.280Z,1.90
2022-12-03T18:44:02.596Z,1.81
2022-12-03T18:46:52.252Z,1.72
2022-12-03T18:49:15.683Z,1.75
2022-12-03T18:51:42.268Z,1.65
2022-12-03T18:54:13.396Z,1.59
2022-12-03T18:56:43.128Z,1.52
2022-12-03T18:59:09.738Z,1.53
2022-12-03T19:01:36.548Z,1.76
2022-12-03T19:04:03.608Z,1.70
2022-12-03T19:06:30.609Z,1.84
2022-12-03T19:08:57.397Z,2.02
2022-12-03T19:11:24.115Z,2.05
2022-12-03T19:13:51.241Z,2.07
2022-12-03T19:16:17.919Z,1.99
2022-12-03T19:18:44.666Z,2.04
2022-12-03T19:21:16.352Z,1.99
2022-12-03T19:24:04.269Z,2.00
2022-12-03T19:26:30.170Z,2.07
2022-12-03T19:28:56.824Z,2.07
2022-12-03T19:31:23.448Z,1.96
2022-12-03T19:33:50.784Z,1.91
2022-12-03T19:36:31.782Z,1.87
2022-12-03T19:39:01.267Z,1.94
2022-12-03T19:41:30.606Z,2.07
2022-12-03T19:44:00.770Z,2.05
2022-12-03T19:46:30.255Z,2.12
2022-12-03T19:48:57.242Z,2.20
2022-12-03T19:51:34.702Z,2.21
2022-12-03T19:54:04.009Z,2.20
2022-12-03T19:56:30.974Z,2.18
2022-12-03T19:58:58.029Z,2.21
2022-12-03T20:01:26.946Z,2.23
2022-12-03T20:03:55.677Z,2.23
2022-12-03T20:06:24.605Z,2.16
2022-12-03T20:08:56.022Z,2.20
2022-12-03T20:11:25.497Z,2.23
2022-12-03T20:13:54.975Z,2.18
2022-12-03T20:16:22.123Z,2.24
2022-12-03T20:18:49.938Z,2.15
2022-12-03T20:21:19.532Z,2.24
2022-12-03T20:23:47.339Z,2.27
2022-12-03T20:26:17.573Z,2.24
2022-12-03T20:28:45.012Z,2.28
2022-12-03T20:31:15.456Z,2.28
2022-12-03T20:33:47.490Z,2.37
2022-12-03T20:36:16.749Z,2.38
2022-12-03T20:38:43.988Z,2.33
2022-12-03T20:41:13.666Z,2.35
2022-12-03T20:43:40.999Z,2.36
2022-12-03T20:46:13.186Z,2.28
2022-12-03T20:48:40.608Z,2.41
2022-12-03T20:51:10.193Z,2.41
2022-12-03T20:53:37.449Z,2.42
2022-12-03T20:56:04.888Z,2.44
2022-12-03T20:58:32.582Z,2.53
2022-12-03T21:01:17.512Z,2.59
2022-12-03T21:03:45.243Z,2.61
2022-12-03T21:06:12.479Z,2.62
2022-12-03T21:08:41.978Z,2.55
2022-12-03T21:11:14.930Z,2.57
2022-12-03T21:13:43.545Z,2.62
2022-12-03T21:16:13.285Z,2.67
2022-12-03T21:18:40.887Z,2.70
2022-12-03T21:21:09.956Z,2.69
2022-12-03T21:23:36.526Z,2.64
2022-12-03T21:26:08.398Z,2.56
2022-12-03T21:28:35.444Z,2.71
2022-12-03T21:31:03.782Z,2.74
2022-12-03T21:33:30.755Z,2.74
2022-12-03T21:35:57.659Z,2.79
2022-12-03T21:38:24.849Z,2.81
2022-12-03T21:40:51.768Z,2.78
2022-12-03T21:43:19.100Z,2.82
2022-12-03T21:45:46.038Z,2.79
2022-12-03T21:48:14.584Z,2.81
2022-12-03T21:50:41.194Z,2.83
2022-12-03T21:53:08.036Z,2.80
2022-12-03T21:55:34.695Z,2.84
2022-12-03T21:58:01.309Z,2.84
2022-12-03T22:00:28.376Z,2.86
2022-12-03T22:02:55.021Z,2.88
2022-12-03T22:05:21.716Z,2.82
2022-12-03T22:07:48.347Z,2.78
2022-12-03T22:10:15.152Z,2.83
2022-12-03T22:12:42.002Z,2.84
2022-12-03T22:15:18.146Z,2.82
2022-12-03T22:17:45.605Z,2.85
2022-12-03T22:20:12.573Z,2.83
2022-12-03T22:22:39.170Z,2.83
2022-12-03T22:25:05.881Z,2.81
2022-12-03T22:27:32.582Z,2.82
2022-12-03T22:29:59.115Z,2.74
2022-12-03T22:32:25.808Z,2.76
2022-12-03T22:34:52.340Z,2.67
2022-12-03T22:37:18.965Z,2.67
2022-12-03T22:39:45.576Z,2.64
2022-12-03T22:42:12.203Z,2.61
2022-12-03T22:44:38.764Z,2.56
2022-12-03T22:47:05.430Z,2.51
2022-12-03T22:49:31.981Z,2.56
2022-12-03T22:51:58.535Z,2.50
2022-12-03T22:54:25.065Z,2.53
2022-12-03T22:56:51.695Z,2.46
2022-12-03T22:59:18.485Z,2.39
2022-12-03T23:01:45.088Z,2.33
2022-12-03T23:04:11.850Z,2.28
2022-12-03T23:06:38.803Z,2.25
2022-12-03T23:09:07.427Z,2.23
2022-12-03T23:11:34.860Z,2.24
2022-12-03T23:14:01.878Z,2.21
2022-12-03T23:16:31.703Z,2.15
2022-12-03T23:19:00.725Z,2.17
2022-12-03T23:21:30.847Z,2.12
2022-12-03T23:24:02.534Z,2.04
2022-12-03T23:26:29.831Z,2.01
2022-12-03T23:28:56.571Z,2.01
2022-12-03T23:31:27.831Z,1.95
2022-12-03T23:33:55.893Z,1.91
2022-12-03T23:36:23.673Z,1.93
2022-12-03T23:38:50.368Z,1.90
2022-12-03T23:41:19.844Z,1.86
2022-12-03T23:43:47.670Z,1.78
2022-12-03T23:46:17.009Z,1.81
2022-12-03T23:48:45.398Z,1.77
2022-12-03T23:51:14.680Z,1.81
2022-12-03T23:53:41.939Z,1.82
2022-12-03T23:56:11.788Z,1.87
2022-12-03T23:58:38.761Z,1.85
